Pourquoi Pas — FMCY — position and weather

sailwx.info

Track history (hours):
 
Tides and Currents Weather Stations Pressure Air Temp Water Temp Dewpoint Dewpoint Depression Visibility Wind Speed Wind Dir Waves Ship Positions

Oceanographic research ship Pourquoi Pas (France)

Last reported at 2017-Jun-24 05:00 UTC. Time now 2017-Jun-24 05:18 UTC.
Position N 43°47' E 009°10'.

Length 108 m; beam 20 m.

Type: Dredging. MMSI: 228207600.

Date/timePositionNaut miles runAvg speedWind from/ knotsBaromVisibWave heightAir tempDewpointWater temp
2017-Jun-24 05:00N 43°47' E 009°10'3 5.2
2017-Jun-24 04:30N 43°45' E 009°07'3 5.1
2017-Jun-24 04:00N 43°43' E 009°05'2 5.0
2017-Jun-24 03:30N 43°41' E 009°03'2 5.0
2017-Jun-24 03:00N 43°39' E 009°01'2 5.0
2017-Jun-24 02:30N 43°38' E 008°59'3 5.1
2017-Jun-24 02:00N 43°36' E 008°56'3 5.1
2017-Jun-24 01:30N 43°34' E 008°54'2 5.0
2017-Jun-24 01:00N 43°32' E 008°52'3 5.0
2017-Jun-24 00:30N 43°30' E 008°50'3 5.3
2017-Jun-23 23:59N 43°28' E 008°47'3 5.4
2017-Jun-23 23:30N 43°26' E 008°45'3 5.1
2017-Jun-23 23:00N 43°24' E 008°43'4 5.0
2017-Jun-23 22:15N 43°21' E 008°39'2 5.2
2017-Jun-23 21:52N 43°19' E 008°38'2 3.8
2017-Jun-23 21:26N 43°18' E 008°36'1 2.3
2017-Jun-23 20:55N 43°17' E 008°37'1 0.3
2017-Jun-23 18:30N 43°17' E 008°36'3 3.5
2017-Jun-23 17:47N 43°15' E 008°34'3 7.8
2017-Jun-23 17:26N 43°13' E 008°32'711.6
2017-Jun-23 16:51N 43°07' E 008°28'411.5
2017-Jun-23 16:30N 43°04' E 008°25'611.3
2017-Jun-23 16:00N 42°59' E 008°21'611.4
2017-Jun-23 15:29N 42°54' E 008°17'510.9
2017-Jun-23 14:59N 42°49' E 008°13'1211.0
2017-Jun-23 13:55N 42°39' E 008°05'1 1.6
2017-Jun-23 13:13N 42°40' E 008°04'1 0.6
2017-Jun-23 11:40N 42°39' E 008°04'0 0.0
2017-Jun-23 11:29N 42°39' E 008°04'0 0.3
2017-Jun-23 10:46N 42°39' E 008°04'1 2.8
2017-Jun-23 10:30N 42°38' E 008°04'510.9
2017-Jun-23 10:00N 42°34' E 008°00'611.4
2017-Jun-23 09:30N 42°29' E 007°56'611.2
2017-Jun-23 09:00N 42°24' E 007°53'611.1
2017-Jun-23 08:30N 42°19' E 007°49'611.4
2017-Jun-23 08:00N 42°14' E 007°45'611.4
2017-Jun-23 07:30N 42°09' E 007°41'611.5
2017-Jun-23 07:00N 42°04' E 007°38'611.6
2017-Jun-23 06:30N 41°59' E 007°34'4 8.1
2017-Jun-23 06:00N 41°55' E 007°31'2 2.2
2017-Jun-23 05:19N 41°57' E 007°32'1 3.7
2017-Jun-23 05:00N 41°57' E 007°31'0 0.6
2017-Jun-23 04:28N 41°58' E 007°31'2 3.3
2017-Jun-23 04:00N 41°57' E 007°30'1 1.9
2017-Jun-23 03:25N 41°57' E 007°31'1 0.4
2017-Jun-23 01:57N 41°57' E 007°32'1710.4
2017-Jun-23 00:17N 42°05' E 007°11'411.4
2017-Jun-22 23:58N 42°07' E 007°07'511.4
2017-Jun-22 23:29N 42°09' E 007°01'611.3
2017-Jun-22 22:57N 42°13' E 006°54'611.3
2017-Jun-22 22:26N 42°15' E 006°47'511.1
2017-Jun-22 22:00N 42°18' E 006°41'611.2
2017-Jun-22 21:30N 42°21' E 006°34'510.9
2017-Jun-22 21:00N 42°23' E 006°28'2711.1
2017-Jun-22 18:36N 42°36' E 005°57'111.0
2017-Jun-22 18:29N 42°37' E 005°55'3 5.2
2017-Jun-22 17:50N 42°39' E 005°51'2 5.1
2017-Jun-22 17:30N 42°37' E 005°52'5 5.6
2017-Jun-22 16:42N 42°33' E 005°53'12 6.2
2017-Jun-22 14:48N 42°22' E 005°58'311.0
2017-Jun-22 14:30N 42°19' E 006°00'1311.4
2017-Jun-22 13:19N 42°09' E 006°11'411.5
2017-Jun-22 13:00N 42°06' E 006°14'711.2
2017-Jun-22 12:24N 42°00' E 006°20'511.0
2017-Jun-22 11:55N 41°56' E 006°24'0 0.7
2017-Jun-22 11:22N 41°56' E 006°24'1 1.7
2017-Jun-22 10:28N 41°57' E 006°25'1 2.8
2017-Jun-22 10:00N 41°56' E 006°26'2 3.6
2017-Jun-22 09:30N 41°57' E 006°23'1 2.0
2017-Jun-22 09:00N 41°57' E 006°25'0 0.0
2017-Jun-22 08:30N 41°57' E 006°25'0 0.0
2017-Jun-22 07:58N 41°57' E 006°25'1 1.1
2017-Jun-22 07:30N 41°57' E 006°24'611.0
2017-Jun-22 07:00N 41°57' E 006°16'511.0
2017-Jun-22 06:30N 41°57' E 006°09'611.0
2017-Jun-22 06:00N 41°57' E 006°02'511.0
2017-Jun-22 05:30N 41°57' E 005°54'611.2
2017-Jun-22 05:00N 41°57' E 005°47'611.4
2017-Jun-22 04:30N 41°57' E 005°39'711.4
2017-Jun-22 03:55N 41°57' E 005°30'13 2.3
2017-Jun-21 22:17N 42°04' E 005°15'36 4.7
2017-Jun-21 14:37N 42°39' E 005°02'0 3.4
2017-Jun-21 14:29N 42°39' E 005°01'7 4.9
2017-Jun-21 13:02N 42°32' E 005°05'0 4.7
2017-Jun-21 13:00N 42°32' E 005°05'1 2.3
2017-Jun-21 12:28N 42°31' E 005°05'0 0.0
2017-Jun-21 11:58N 42°31' E 005°05'8 2.8
2017-Jun-21 09:03N 42°39' E 005°02'0 1.9
2017-Jun-21 09:01N 42°39' E 005°02'1 0.6
2017-Jun-21 07:50N 42°39' E 005°01'11 3.1
2017-Jun-21 04:22N 42°49' E 005°05'2 4.3
2017-Jun-21 03:53N 42°51' E 005°05'2 4.3
2017-Jun-21 03:25N 42°53' E 005°05'4 4.1
2017-Jun-21 02:20N 42°58' E 005°04'2 4.3
2017-Jun-21 01:51N 42°60' E 005°03'1 0.5
2017-Jun-21 00:38N 43°00' E 005°04'0 0.6
2017-Jun-21 00:21N 43°00' E 005°04'0 0.6
2017-Jun-20 23:51N 42°60' E 005°04'1 0.5
2017-Jun-20 22:24N 42°59' E 005°04'0 0.4
2017-Jun-20 21:57N 42°59' E 005°04'0 0.4
2017-Jun-20 21:15N 42°59' E 005°05'2 1.2
2017-Jun-20 19:52N 42°57' E 005°05'11 7.0
2017-Jun-20 18:22N 42°50' E 005°16'0 0.5
2017-Jun-20 17:52N 42°50' E 005°16'1 1.0
2017-Jun-20 16:22N 42°51' E 005°18'1610.7
2017-Jun-20 14:52N 42°57' E 005°38'411.4
2017-Jun-20 14:30N 42°59' E 005°43'11 8.2
2017-Jun-20 13:07N 43°05' E 005°56'1 8.3
2017-Jun-20 13:00N 43°06' E 005°55'1 2.5
2017-Jun-20 12:28N 43°06' E 005°53'0 0.0
2017-Jun-20 12:00N 43°06' E 005°53'1 1.3
2017-Jun-20 11:30N 43°06' E 005°54'4 8.2
2017-Jun-20 11:00N 43°04' E 005°59'6 6.1
2017-Jun-20 10:01N 43°01' E 005°53'011.0
2017-Jun-20 10:00N 43°01' E 005°52'510.6
2017-Jun-20 09:30N 42°59' E 005°46'910.7
2017-Jun-20 08:42N 42°57' E 005°34'210.9
2017-Jun-20 08:30N 42°56' E 005°31'611.0
2017-Jun-20 08:00N 42°54' E 005°24'7 6.0
2017-Jun-20 06:51N 42°48' E 005°20'411.9
2017-Jun-20 06:30N 42°44' E 005°22'611.9
2017-Jun-20 06:00N 42°39' E 005°24'1410.1
2017-Jun-20 04:37N 42°25' E 005°18'1311.0
2017-Jun-20 03:24N 42°15' E 005°06'6 7.5
2017-Jun-20 02:37N 42°11' E 005°01'2410.8
2017-Jun-20 00:24N 42°19' E 005°31'2011.2
2017-Jun-19 22:38N 42°26' E 005°56'1611.3
2017-Jun-19 21:14N 42°31' E 006°16'711.2
2017-Jun-19 20:38N 42°33' E 006°25'2311.4
2017-Jun-19 18:38N 42°41' E 006°54'3311.1
2017-Jun-19 15:38N 42°53' E 007°37'110.7
2017-Jun-19 15:30N 42°53' E 007°39'511.0
2017-Jun-19 15:00N 42°55' E 007°46'510.8
2017-Jun-19 14:30N 42°57' E 007°52'9 9.0
2017-Jun-19 13:30N 42°60' E 008°04'2 3.7
2017-Jun-19 13:00N 43°01' E 008°05'611.1
2017-Jun-19 12:30N 43°06' E 008°09'510.7
2017-Jun-19 12:00N 43°11' E 008°13'510.8
2017-Jun-19 11:30N 43°15' E 008°17'1910.9
2017-Jun-19 09:47N 43°32' E 008°30'311.0
2017-Jun-19 09:30N 43°34' E 008°33'611.2
2017-Jun-19 09:00N 43°39' E 008°37'4 7.1
2017-Jun-19 08:30N 43°42' E 008°39'4 8.6
2017-Jun-19 08:00N 43°39' E 008°42'611.2
2017-Jun-19 07:30N 43°34' E 008°46'611.4
2017-Jun-19 07:00N 43°29' E 008°51'510.9
2017-Jun-19 06:30N 43°25' E 008°55'4 8.7
2017-Jun-19 06:00N 43°21' E 008°58'4 8.9
2017-Jun-19 05:30N 43°17' E 009°02'4 8.9
2017-Jun-19 05:00N 43°14' E 009°05'4 8.6
2017-Jun-19 04:30N 43°10' E 009°09'4 7.5
2017-Jun-19 04:00N 43°07' E 009°12'0 0.3
2017-Jun-19 03:30N 43°07' E 009°12'1 2.6
2017-Jun-19 03:00N 43°07' E 009°10'610.9
2017-Jun-19 02:30N 43°04' E 009°03'611.1
2017-Jun-19 01:59N 43°01' E 008°57'1011.1
2017-Jun-19 01:06N 42°56' E 008°45'111.2
2017-Jun-19 01:00N 42°56' E 008°44'510.0
2017-Jun-19 00:28N 42°53' E 008°37'0 0.7
2017-Jun-19 00:01N 42°53' E 008°38'5 9.4
2017-Jun-18 23:30N 42°51' E 008°32'510.9
2017-Jun-18 23:00N 42°48' E 008°26'510.9
2017-Jun-18 22:30N 42°45' E 008°19'511.0
2017-Jun-18 22:00N 42°42' E 008°13'510.9
2017-Jun-18 21:30N 42°40' E 008°06'610.6
2017-Jun-18 20:59N 42°37' E 007°60'53 8.5
2017-Jun-18 14:43N 42°11' E 006°58'2010.0
2017-Jun-18 12:43N 42°31' E 006°58'810.8
2017-Jun-18 12:01N 42°38' E 006°58'010.9
2017-Jun-18 12:00N 42°38' E 006°58'510.8
2017-Jun-18 11:30N 42°44' E 006°58'510.6
2017-Jun-18 11:00N 42°49' E 006°58'510.7
2017-Jun-18 10:30N 42°54' E 006°58'5 9.9
2017-Jun-18 10:00N 42°59' E 006°58'1 1.3
2017-Jun-18 09:30N 42°60' E 006°58'0 0.0
2017-Jun-18 08:43N 42°60' E 006°58'0 0.0
2017-Jun-18 08:18N 42°60' E 006°58'7 5.2
2017-Jun-18 06:58N 43°07' E 006°58'0 0.0
2017-Jun-18 06:29N 43°07' E 006°58'0 0.0
2017-Jun-18 06:00N 43°07' E 006°58'0 0.1
2017-Jun-18 05:22N 43°07' E 006°58'0 0.1
2017-Jun-18 05:00N 43°07' E 006°58'5 5.6
2017-Jun-18 04:12N 43°09' E 007°03'2 8.5
2017-Jun-18 04:00N 43°10' E 007°05'4 8.7
2017-Jun-18 03:30N 43°12' E 007°10'4 8.6
2017-Jun-18 03:00N 43°14' E 007°15'4 8.5
2017-Jun-18 02:30N 43°16' E 007°20'4 8.4
2017-Jun-18 02:00N 43°19' E 007°25'4 8.2
2017-Jun-18 01:30N 43°21' E 007°30'1 1.9
2017-Jun-18 00:58N 43°21' E 007°31'1 2.8
2017-Jun-18 00:30N 43°20' E 007°31'4 8.2
2017-Jun-18 00:00N 43°16' E 007°31'4 8.2
2017-Jun-17 23:30N 43°12' E 007°31'4 8.3
2017-Jun-17 23:00N 43°08' E 007°31'5 8.2
2017-Jun-17 22:27N 43°03' E 007°31'4 8.3
2017-Jun-17 22:00N 42°59' E 007°31'4 8.2
2017-Jun-17 21:30N 42°55' E 007°31'2 4.3
2017-Jun-17 21:00N 42°53' E 007°31'5 9.4
2017-Jun-17 20:30N 42°49' E 007°34'611.0
2017-Jun-17 19:59N 42°44' E 007°37'510.9
2017-Jun-17 19:30N 42°39' E 007°40'510.8
2017-Jun-17 19:00N 42°34' E 007°43'510.7
2017-Jun-17 18:30N 42°29' E 007°47'510.5
2017-Jun-17 18:00N 42°25' E 007°50'1310.2
2017-Jun-17 16:42N 42°12' E 007°58'2 7.4
2017-Jun-17 16:27N 42°11' E 007°59'1 1.7
2017-Jun-17 16:00N 42°10' E 007°59'6 9.4
2017-Jun-17 15:24N 42°05' E 007°60'2210.6
2017-Jun-17 13:22N 41°43' E 007°59'1 2.1
2017-Jun-17 13:00N 41°42' E 007°59'3110.6
2017-Jun-17 10:02N 41°43' E 007°17'411.0
2017-Jun-17 09:42N 41°43' E 007°12'311.0
2017-Jun-17 09:26N 41°43' E 007°08'8 7.2
2017-Jun-17 08:23N 41°43' E 006°58'2010.8
2017-Jun-17 06:29N 41°43' E 006°31'61 5.3
2017-Jun-16 18:57N 41°40' E 005°10'2 4.0
2017-Jun-16 18:30N 41°40' E 005°07'7 4.2
2017-Jun-16 16:42N 41°39' E 004°57'5 4.1
2017-Jun-16 15:32N 41°39' E 004°51'5 2.3
2017-Jun-16 13:26N 41°38' E 004°44'0 0.4
2017-Jun-16 12:12N 41°39' E 004°44'29 5.2
2017-Jun-16 06:36N 42°06' E 004°59'29 5.3
2017-Jun-16 01:08N 42°25' E 005°29'110.4
2017-Jun-16 00:59N 42°25' E 005°31'2714.7
2017-Jun-15 23:11N 42°16' E 006°05'1034.7
2017-Jun-15 22:54N 42°26' E 006°01'17 9.7
2017-Jun-15 21:11N 42°25' E 006°24'0 0.1
2017-Jun-15 20:45N 42°25' E 006°24'0 0.2
2017-Jun-15 20:31N 42°25' E 006°24'0 0.2
2017-Jun-15 19:58N 42°25' E 006°24'0 0.1
2017-Jun-15 19:18N 42°25' E 006°24'0 0.1
2017-Jun-15 19:01N 42°25' E 006°24'0 0.3
2017-Jun-15 18:30N 42°25' E 006°24'0 0.6
2017-Jun-15 17:56N 42°25' E 006°25'3 5.1
2017-Jun-15 17:22N 42°23' E 006°21'510.8
2017-Jun-15 16:55N 42°21' E 006°16'711.0
2017-Jun-15 16:19N 42°17' E 006°08'711.1
2017-Jun-15 15:40N 42°14' E 005°59'211.0
2017-Jun-15 15:30N 42°13' E 005°58'5 9.4
2017-Jun-15 14:59N 42°11' E 005°51'5 5.1
2017-Jun-15 13:58N 42°16' E 005°52'511.5
2017-Jun-15 13:30N 42°21' E 005°53'3 4.4
2017-Jun-15 12:55N 42°24' E 005°53'0 0.2
2017-Jun-15 12:19N 42°24' E 005°53'0 0.4
2017-Jun-15 11:44N 42°24' E 005°53'0 0.6
2017-Jun-15 11:14N 42°24' E 005°53'2 6.2
2017-Jun-15 10:56N 42°26' E 005°53'711.1
2017-Jun-15 10:17N 42°33' E 005°54'311.1
2017-Jun-15 09:59N 42°37' E 005°55'1011.3
2017-Jun-15 09:06N 42°46' E 005°56'210.9
2017-Jun-15 08:56N 42°48' E 005°56'1710.7
2017-Jun-15 07:21N 43°05' E 005°57'2 7.3
2017-Jun-15 07:01N 43°06' E 005°54'0 0.3
2017-Jun-15 06:28N 43°06' E 005°54'0 0.0
2017-Jun-15 05:58N 43°06' E 005°54'0 0.0
2017-Jun-15 05:28N 43°06' E 005°54'0 0.0
2017-Jun-15 04:58N 43°06' E 005°54'0 0.0
2017-Jun-15 04:28N 43°06' E 005°54'0 0.0
2017-Jun-15 03:58N 43°06' E 005°54'0 0.0
2017-Jun-15 03:28N 43°06' E 005°54'0 0.0
2017-Jun-15 02:58N 43°06' E 005°54'0 0.0
2017-Jun-15 02:28N 43°06' E 005°54'0 0.0
2017-Jun-15 01:58N 43°06' E 005°54'0 0.0
2017-Jun-15 01:28N 43°06' E 005°54'0 0.0
2017-Jun-15 00:58N 43°06' E 005°54'0 0.0
2017-Jun-15 00:28N 43°06' E 005°54'0 0.0
2017-Jun-14 23:58N 43°06' E 005°54'0 0.0
2017-Jun-14 23:28N 43°06' E 005°54'0 0.0
2017-Jun-14 22:58N 43°06' E 005°54'0 0.0
2017-Jun-14 22:28N 43°06' E 005°54'0 0.0
2017-Jun-14 21:58N 43°06' E 005°54'0 0.0
2017-Jun-14 21:28N 43°06' E 005°54'0 0.0
2017-Jun-14 20:58N 43°06' E 005°54'0 0.0
2017-Jun-14 20:28N 43°06' E 005°54'0 0.0
2017-Jun-14 19:58N 43°06' E 005°54'0 0.0
2017-Jun-14 19:28N 43°06' E 005°54'0 0.0
2017-Jun-14 18:58N 43°06' E 005°54'0 0.0
2017-Jun-14 18:28N 43°06' E 005°54'0 0.0
2017-Jun-14 17:58N 43°06' E 005°54'0 0.0
2017-Jun-14 17:28N 43°06' E 005°54'0 0.0
2017-Jun-14 16:58N 43°06' E 005°54'0 0.0
2017-Jun-14 16:28N 43°06' E 005°54'0 0.0
2017-Jun-14 15:58N 43°06' E 005°54'0 0.0
2017-Jun-14 15:28N 43°06' E 005°54'0 0.0
2017-Jun-14 14:58N 43°06' E 005°54'0 0.0
2017-Jun-14 13:58N 43°06' E 005°54'0 0.0
2017-Jun-14 13:28N 43°06' E 005°54'0 0.0
2017-Jun-14 12:55N 43°06' E 005°54'0 0.0
2017-Jun-14 12:28N 43°06' E 005°54'0 0.0
2017-Jun-14 11:58N 43°06' E 005°54'0 0.0
2017-Jun-14 11:28N 43°06' E 005°54'0 0.0
2017-Jun-14 10:58N 43°06' E 005°54'0 0.0
2017-Jun-14 10:28N 43°06' E 005°54'0 0.0
2017-Jun-14 09:58N 43°06' E 005°54'0 0.0
2017-Jun-14 09:28N 43°06' E 005°54'0 0.0
2017-Jun-14 08:58N 43°06' E 005°54'0 0.0
2017-Jun-14 08:25N 43°06' E 005°54'0 0.0
2017-Jun-14 07:58N 43°06' E 005°54'0 0.0
2017-Jun-14 07:28N 43°06' E 005°54'0 0.0
2017-Jun-14 06:58N 43°06' E 005°54'0 0.0
2017-Jun-14 06:28N 43°06' E 005°54'0 0.0
2017-Jun-14 05:58N 43°06' E 005°54'0 0.0
2017-Jun-14 05:28N 43°06' E 005°54'  
Track history (hours):
 
Tides and Currents Weather Stations Pressure Air Temp Water Temp Dewpoint Dewpoint Depression Visibility Wind Speed Wind Dir Waves Ship Positions

Oceanographic research ship Pourquoi Pas (France)

Last reported at 2017-Jun-24 05:00 UTC. Time now 2017-Jun-24 05:18 UTC.
Position N 43°47' E 009°10'.

Length 108 m; beam 20 m.

Type: Dredging. MMSI: 228207600.

Date/timePositionNaut miles runAvg speedWind from/ knotsBaromVisibWave heightAir tempDewpointWater temp
2017-Jun-24 05:00N 43°47' E 009°10'3 5.2
2017-Jun-24 04:30N 43°45' E 009°07'3 5.1
2017-Jun-24 04:00N 43°43' E 009°05'2 5.0
2017-Jun-24 03:30N 43°41' E 009°03'2 5.0
2017-Jun-24 03:00N 43°39' E 009°01'2 5.0
2017-Jun-24 02:30N 43°38' E 008°59'3 5.1
2017-Jun-24 02:00N 43°36' E 008°56'3 5.1
2017-Jun-24 01:30N 43°34' E 008°54'2 5.0
2017-Jun-24 01:00N 43°32' E 008°52'3 5.0
2017-Jun-24 00:30N 43°30' E 008°50'3 5.3
2017-Jun-23 23:59N 43°28' E 008°47'3 5.4
2017-Jun-23 23:30N 43°26' E 008°45'3 5.1
2017-Jun-23 23:00N 43°24' E 008°43'4 5.0
2017-Jun-23 22:15N 43°21' E 008°39'2 5.2
2017-Jun-23 21:52N 43°19' E 008°38'2 3.8
2017-Jun-23 21:26N 43°18' E 008°36'1 2.3
2017-Jun-23 20:55N 43°17' E 008°37'1 0.3
2017-Jun-23 18:30N 43°17' E 008°36'3 3.5
2017-Jun-23 17:47N 43°15' E 008°34'3 7.8
2017-Jun-23 17:26N 43°13' E 008°32'711.6
2017-Jun-23 16:51N 43°07' E 008°28'411.5
2017-Jun-23 16:30N 43°04' E 008°25'611.3
2017-Jun-23 16:00N 42°59' E 008°21'611.4
2017-Jun-23 15:29N 42°54' E 008°17'510.9
2017-Jun-23 14:59N 42°49' E 008°13'1211.0
2017-Jun-23 13:55N 42°39' E 008°05'1 1.6
2017-Jun-23 13:13N 42°40' E 008°04'1 0.6
2017-Jun-23 11:40N 42°39' E 008°04'0 0.0
2017-Jun-23 11:29N 42°39' E 008°04'0 0.3
2017-Jun-23 10:46N 42°39' E 008°04'1 2.8
2017-Jun-23 10:30N 42°38' E 008°04'510.9
2017-Jun-23 10:00N 42°34' E 008°00'611.4
2017-Jun-23 09:30N 42°29' E 007°56'611.2
2017-Jun-23 09:00N 42°24' E 007°53'611.1
2017-Jun-23 08:30N 42°19' E 007°49'611.4
2017-Jun-23 08:00N 42°14' E 007°45'611.4
2017-Jun-23 07:30N 42°09' E 007°41'611.5
2017-Jun-23 07:00N 42°04' E 007°38'611.6
2017-Jun-23 06:30N 41°59' E 007°34'4 8.1
2017-Jun-23 06:00N 41°55' E 007°31'2 2.2
2017-Jun-23 05:19N 41°57' E 007°32'1 3.7
2017-Jun-23 05:00N 41°57' E 007°31'0 0.6
2017-Jun-23 04:28N 41°58' E 007°31'2 3.3
2017-Jun-23 04:00N 41°57' E 007°30'1 1.9
2017-Jun-23 03:25N 41°57' E 007°31'1 0.4
2017-Jun-23 01:57N 41°57' E 007°32'1710.4
2017-Jun-23 00:17N 42°05' E 007°11'411.4
2017-Jun-22 23:58N 42°07' E 007°07'511.4
2017-Jun-22 23:29N 42°09' E 007°01'611.3
2017-Jun-22 22:57N 42°13' E 006°54'611.3
2017-Jun-22 22:26N 42°15' E 006°47'511.1
2017-Jun-22 22:00N 42°18' E 006°41'611.2
2017-Jun-22 21:30N 42°21' E 006°34'510.9
2017-Jun-22 21:00N 42°23' E 006°28'2711.1
2017-Jun-22 18:36N 42°36' E 005°57'111.0
2017-Jun-22 18:29N 42°37' E 005°55'3 5.2
2017-Jun-22 17:50N 42°39' E 005°51'2 5.1
2017-Jun-22 17:30N 42°37' E 005°52'5 5.6
2017-Jun-22 16:42N 42°33' E 005°53'12 6.2
2017-Jun-22 14:48N 42°22' E 005°58'311.0
2017-Jun-22 14:30N 42°19' E 006°00'1311.4
2017-Jun-22 13:19N 42°09' E 006°11'411.5
2017-Jun-22 13:00N 42°06' E 006°14'711.2
2017-Jun-22 12:24N 42°00' E 006°20'511.0
2017-Jun-22 11:55N 41°56' E 006°24'0 0.7
2017-Jun-22 11:22N 41°56' E 006°24'1 1.7
2017-Jun-22 10:28N 41°57' E 006°25'1 2.8
2017-Jun-22 10:00N 41°56' E 006°26'2 3.6
2017-Jun-22 09:30N 41°57' E 006°23'1 2.0
2017-Jun-22 09:00N 41°57' E 006°25'0 0.0
2017-Jun-22 08:30N 41°57' E 006°25'0 0.0
2017-Jun-22 07:58N 41°57' E 006°25'1 1.1
2017-Jun-22 07:30N 41°57' E 006°24'611.0
2017-Jun-22 07:00N 41°57' E 006°16'511.0
2017-Jun-22 06:30N 41°57' E 006°09'611.0
2017-Jun-22 06:00N 41°57' E 006°02'511.0
2017-Jun-22 05:30N 41°57' E 005°54'611.2
2017-Jun-22 05:00N 41°57' E 005°47'611.4
2017-Jun-22 04:30N 41°57' E 005°39'711.4
2017-Jun-22 03:55N 41°57' E 005°30'13 2.3
2017-Jun-21 22:17N 42°04' E 005°15'36 4.7
2017-Jun-21 14:37N 42°39' E 005°02'0 3.4
2017-Jun-21 14:29N 42°39' E 005°01'7 4.9
2017-Jun-21 13:02N 42°32' E 005°05'0 4.7
2017-Jun-21 13:00N 42°32' E 005°05'1 2.3
2017-Jun-21 12:28N 42°31' E 005°05'0 0.0
2017-Jun-21 11:58N 42°31' E 005°05'8 2.8
2017-Jun-21 09:03N 42°39' E 005°02'0 1.9
2017-Jun-21 09:01N 42°39' E 005°02'1 0.6
2017-Jun-21 07:50N 42°39' E 005°01'11 3.1
2017-Jun-21 04:22N 42°49' E 005°05'2 4.3
2017-Jun-21 03:53N 42°51' E 005°05'2 4.3
2017-Jun-21 03:25N 42°53' E 005°05'4 4.1
2017-Jun-21 02:20N 42°58' E 005°04'2 4.3
2017-Jun-21 01:51N 42°60' E 005°03'1 0.5
2017-Jun-21 00:38N 43°00' E 005°04'0 0.6
2017-Jun-21 00:21N 43°00' E 005°04'0 0.6
2017-Jun-20 23:51N 42°60' E 005°04'1 0.5
2017-Jun-20 22:24N 42°59' E 005°04'0 0.4
2017-Jun-20 21:57N 42°59' E 005°04'0 0.4
2017-Jun-20 21:15N 42°59' E 005°05'2 1.2
2017-Jun-20 19:52N 42°57' E 005°05'11 7.0
2017-Jun-20 18:22N 42°50' E 005°16'0 0.5
2017-Jun-20 17:52N 42°50' E 005°16'1 1.0
2017-Jun-20 16:22N 42°51' E 005°18'1610.7
2017-Jun-20 14:52N 42°57' E 005°38'411.4
2017-Jun-20 14:30N 42°59' E 005°43'11 8.2
2017-Jun-20 13:07N 43°05' E 005°56'1 8.3
2017-Jun-20 13:00N 43°06' E 005°55'1 2.5
2017-Jun-20 12:28N 43°06' E 005°53'0 0.0
2017-Jun-20 12:00N 43°06' E 005°53'1 1.3
2017-Jun-20 11:30N 43°06' E 005°54'4 8.2
2017-Jun-20 11:00N 43°04' E 005°59'6 6.1
2017-Jun-20 10:01N 43°01' E 005°53'011.0
2017-Jun-20 10:00N 43°01' E 005°52'510.6
2017-Jun-20 09:30N 42°59' E 005°46'910.7
2017-Jun-20 08:42N 42°57' E 005°34'210.9
2017-Jun-20 08:30N 42°56' E 005°31'611.0
2017-Jun-20 08:00N 42°54' E 005°24'7 6.0
2017-Jun-20 06:51N 42°48' E 005°20'411.9
2017-Jun-20 06:30N 42°44' E 005°22'611.9
2017-Jun-20 06:00N 42°39' E 005°24'1410.1
2017-Jun-20 04:37N 42°25' E 005°18'1311.0
2017-Jun-20 03:24N 42°15' E 005°06'6 7.5
2017-Jun-20 02:37N 42°11' E 005°01'2410.8
2017-Jun-20 00:24N 42°19' E 005°31'2011.2
2017-Jun-19 22:38N 42°26' E 005°56'1611.3
2017-Jun-19 21:14N 42°31' E 006°16'711.2
2017-Jun-19 20:38N 42°33' E 006°25'2311.4
2017-Jun-19 18:38N 42°41' E 006°54'3311.1
2017-Jun-19 15:38N 42°53' E 007°37'110.7
2017-Jun-19 15:30N 42°53' E 007°39'511.0
2017-Jun-19 15:00N 42°55' E 007°46'510.8
2017-Jun-19 14:30N 42°57' E 007°52'9 9.0
2017-Jun-19 13:30N 42°60' E 008°04'2 3.7
2017-Jun-19 13:00N 43°01' E 008°05'611.1
2017-Jun-19 12:30N 43°06' E 008°09'510.7
2017-Jun-19 12:00N 43°11' E 008°13'510.8
2017-Jun-19 11:30N 43°15' E 008°17'1910.9
2017-Jun-19 09:47N 43°32' E 008°30'311.0
2017-Jun-19 09:30N 43°34' E 008°33'611.2
2017-Jun-19 09:00N 43°39' E 008°37'4 7.1
2017-Jun-19 08:30N 43°42' E 008°39'4 8.6
2017-Jun-19 08:00N 43°39' E 008°42'611.2
2017-Jun-19 07:30N 43°34' E 008°46'611.4
2017-Jun-19 07:00N 43°29' E 008°51'510.9
2017-Jun-19 06:30N 43°25' E 008°55'4 8.7
2017-Jun-19 06:00N 43°21' E 008°58'4 8.9
2017-Jun-19 05:30N 43°17' E 009°02'4 8.9
2017-Jun-19 05:00N 43°14' E 009°05'4 8.6
2017-Jun-19 04:30N 43°10' E 009°09'4 7.5
2017-Jun-19 04:00N 43°07' E 009°12'0 0.3
2017-Jun-19 03:30N 43°07' E 009°12'1 2.6
2017-Jun-19 03:00N 43°07' E 009°10'610.9
2017-Jun-19 02:30N 43°04' E 009°03'611.1
2017-Jun-19 01:59N 43°01' E 008°57'1011.1
2017-Jun-19 01:06N 42°56' E 008°45'111.2
2017-Jun-19 01:00N 42°56' E 008°44'510.0
2017-Jun-19 00:28N 42°53' E 008°37'0 0.7
2017-Jun-19 00:01N 42°53' E 008°38'5 9.4
2017-Jun-18 23:30N 42°51' E 008°32'510.9
2017-Jun-18 23:00N 42°48' E 008°26'510.9
2017-Jun-18 22:30N 42°45' E 008°19'511.0
2017-Jun-18 22:00N 42°42' E 008°13'510.9
2017-Jun-18 21:30N 42°40' E 008°06'610.6
2017-Jun-18 20:59N 42°37' E 007°60'53 8.5
2017-Jun-18 14:43N 42°11' E 006°58'2010.0
2017-Jun-18 12:43N 42°31' E 006°58'810.8
2017-Jun-18 12:01N 42°38' E 006°58'010.9
2017-Jun-18 12:00N 42°38' E 006°58'510.8
2017-Jun-18 11:30N 42°44' E 006°58'510.6
2017-Jun-18 11:00N 42°49' E 006°58'510.7
2017-Jun-18 10:30N 42°54' E 006°58'5 9.9
2017-Jun-18 10:00N 42°59' E 006°58'1 1.3
2017-Jun-18 09:30N 42°60' E 006°58'0 0.0
2017-Jun-18 08:43N 42°60' E 006°58'0 0.0
2017-Jun-18 08:18N 42°60' E 006°58'7 5.2
2017-Jun-18 06:58N 43°07' E 006°58'0 0.0
2017-Jun-18 06:29N 43°07' E 006°58'0 0.0
2017-Jun-18 06:00N 43°07' E 006°58'0 0.1
2017-Jun-18 05:22N 43°07' E 006°58'0 0.1
2017-Jun-18 05:00N 43°07' E 006°58'5 5.6
2017-Jun-18 04:12N 43°09' E 007°03'2 8.5
2017-Jun-18 04:00N 43°10' E 007°05'4 8.7
2017-Jun-18 03:30N 43°12' E 007°10'4 8.6
2017-Jun-18 03:00N 43°14' E 007°15'4 8.5
2017-Jun-18 02:30N 43°16' E 007°20'4 8.4
2017-Jun-18 02:00N 43°19' E 007°25'4 8.2
2017-Jun-18 01:30N 43°21' E 007°30'1 1.9
2017-Jun-18 00:58N 43°21' E 007°31'1 2.8
2017-Jun-18 00:30N 43°20' E 007°31'4 8.2
2017-Jun-18 00:00N 43°16' E 007°31'4 8.2
2017-Jun-17 23:30N 43°12' E 007°31'4 8.3
2017-Jun-17 23:00N 43°08' E 007°31'5 8.2
2017-Jun-17 22:27N 43°03' E 007°31'4 8.3
2017-Jun-17 22:00N 42°59' E 007°31'4 8.2
2017-Jun-17 21:30N 42°55' E 007°31'2 4.3
2017-Jun-17 21:00N 42°53' E 007°31'5 9.4
2017-Jun-17 20:30N 42°49' E 007°34'611.0
2017-Jun-17 19:59N 42°44' E 007°37'510.9
2017-Jun-17 19:30N 42°39' E 007°40'510.8
2017-Jun-17 19:00N 42°34' E 007°43'510.7
2017-Jun-17 18:30N 42°29' E 007°47'510.5
2017-Jun-17 18:00N 42°25' E 007°50'1310.2
2017-Jun-17 16:42N 42°12' E 007°58'2 7.4
2017-Jun-17 16:27N 42°11' E 007°59'1 1.7
2017-Jun-17 16:00N 42°10' E 007°59'6 9.4
2017-Jun-17 15:24N 42°05' E 007°60'2210.6
2017-Jun-17 13:22N 41°43' E 007°59'1 2.1
2017-Jun-17 13:00N 41°42' E 007°59'3110.6
2017-Jun-17 10:02N 41°43' E 007°17'411.0
2017-Jun-17 09:42N 41°43' E 007°12'311.0
2017-Jun-17 09:26N 41°43' E 007°08'8 7.2
2017-Jun-17 08:23N 41°43' E 006°58'2010.8
2017-Jun-17 06:29N 41°43' E 006°31'61 5.3
2017-Jun-16 18:57N 41°40' E 005°10'2 4.0
2017-Jun-16 18:30N 41°40' E 005°07'7 4.2
2017-Jun-16 16:42N 41°39' E 004°57'5 4.1
2017-Jun-16 15:32N 41°39' E 004°51'5 2.3
2017-Jun-16 13:26N 41°38' E 004°44'0 0.4
2017-Jun-16 12:12N 41°39' E 004°44'29 5.2
2017-Jun-16 06:36N 42°06' E 004°59'29 5.3
2017-Jun-16 01:08N 42°25' E 005°29'110.4
2017-Jun-16 00:59N 42°25' E 005°31'2714.7
2017-Jun-15 23:11N 42°16' E 006°05'1034.7
2017-Jun-15 22:54N 42°26' E 006°01'17 9.7
2017-Jun-15 21:11N 42°25' E 006°24'0 0.1
2017-Jun-15 20:45N 42°25' E 006°24'0 0.2
2017-Jun-15 20:31N 42°25' E 006°24'0 0.2
2017-Jun-15 19:58N 42°25' E 006°24'0 0.1
2017-Jun-15 19:18N 42°25' E 006°24'0 0.1
2017-Jun-15 19:01N 42°25' E 006°24'0 0.3
2017-Jun-15 18:30N 42°25' E 006°24'0 0.6
2017-Jun-15 17:56N 42°25' E 006°25'3 5.1
2017-Jun-15 17:22N 42°23' E 006°21'510.8
2017-Jun-15 16:55N 42°21' E 006°16'711.0
2017-Jun-15 16:19N 42°17' E 006°08'711.1
2017-Jun-15 15:40N 42°14' E 005°59'211.0
2017-Jun-15 15:30N 42°13' E 005°58'5 9.4
2017-Jun-15 14:59N 42°11' E 005°51'5 5.1
2017-Jun-15 13:58N 42°16' E 005°52'511.5
2017-Jun-15 13:30N 42°21' E 005°53'3 4.4
2017-Jun-15 12:55N 42°24' E 005°53'0 0.2
2017-Jun-15 12:19N 42°24' E 005°53'0 0.4
2017-Jun-15 11:44N 42°24' E 005°53'0 0.6
2017-Jun-15 11:14N 42°24' E 005°53'2 6.2
2017-Jun-15 10:56N 42°26' E 005°53'711.1
2017-Jun-15 10:17N 42°33' E 005°54'311.1
2017-Jun-15 09:59N 42°37' E 005°55'1011.3
2017-Jun-15 09:06N 42°46' E 005°56'210.9
2017-Jun-15 08:56N 42°48' E 005°56'1710.7
2017-Jun-15 07:21N 43°05' E 005°57'2 7.3
2017-Jun-15 07:01N 43°06' E 005°54'0 0.3
2017-Jun-15 06:28N 43°06' E 005°54'0 0.0
2017-Jun-15 05:58N 43°06' E 005°54'0 0.0
2017-Jun-15 05:28N 43°06' E 005°54'0 0.0
2017-Jun-15 04:58N 43°06' E 005°54'0 0.0
2017-Jun-15 04:28N 43°06' E 005°54'0 0.0
2017-Jun-15 03:58N 43°06' E 005°54'0 0.0
2017-Jun-15 03:28N 43°06' E 005°54'0 0.0
2017-Jun-15 02:58N 43°06' E 005°54'0 0.0
2017-Jun-15 02:28N 43°06' E 005°54'0 0.0
2017-Jun-15 01:58N 43°06' E 005°54'0 0.0
2017-Jun-15 01:28N 43°06' E 005°54'0 0.0
2017-Jun-15 00:58N 43°06' E 005°54'0 0.0
2017-Jun-15 00:28N 43°06' E 005°54'0 0.0
2017-Jun-14 23:58N 43°06' E 005°54'0 0.0
2017-Jun-14 23:28N 43°06' E 005°54'0 0.0
2017-Jun-14 22:58N 43°06' E 005°54'0 0.0
2017-Jun-14 22:28N 43°06' E 005°54'0 0.0
2017-Jun-14 21:58N 43°06' E 005°54'0 0.0
2017-Jun-14 21:28N 43°06' E 005°54'0 0.0
2017-Jun-14 20:58N 43°06' E 005°54'0 0.0
2017-Jun-14 20:28N 43°06' E 005°54'0 0.0
2017-Jun-14 19:58N 43°06' E 005°54'0 0.0
2017-Jun-14 19:28N 43°06' E 005°54'0 0.0
2017-Jun-14 18:58N 43°06' E 005°54'0 0.0
2017-Jun-14 18:28N 43°06' E 005°54'0 0.0
2017-Jun-14 17:58N 43°06' E 005°54'0 0.0
2017-Jun-14 17:28N 43°06' E 005°54'0 0.0
2017-Jun-14 16:58N 43°06' E 005°54'0 0.0
2017-Jun-14 16:28N 43°06' E 005°54'0 0.0
2017-Jun-14 15:58N 43°06' E 005°54'0 0.0
2017-Jun-14 15:28N 43°06' E 005°54'0 0.0
2017-Jun-14 14:58N 43°06' E 005°54'0 0.0
2017-Jun-14 13:58N 43°06' E 005°54'0 0.0
2017-Jun-14 13:28N 43°06' E 005°54'0 0.0
2017-Jun-14 12:55N 43°06' E 005°54'0 0.0
2017-Jun-14 12:28N 43°06' E 005°54'0 0.0
2017-Jun-14 11:58N 43°06' E 005°54'0 0.0
2017-Jun-14 11:28N 43°06' E 005°54'0 0.0
2017-Jun-14 10:58N 43°06' E 005°54'0 0.0
2017-Jun-14 10:28N 43°06' E 005°54'0 0.0
2017-Jun-14 09:58N 43°06' E 005°54'0 0.0
2017-Jun-14 09:28N 43°06' E 005°54'0 0.0
2017-Jun-14 08:58N 43°06' E 005°54'0 0.0
2017-Jun-14 08:25N 43°06' E 005°54'0 0.0
2017-Jun-14 07:58N 43°06' E 005°54'0 0.0
2017-Jun-14 07:28N 43°06' E 005°54'0 0.0
2017-Jun-14 06:58N 43°06' E 005°54'0 0.0
2017-Jun-14 06:28N 43°06' E 005°54'0 0.0
2017-Jun-14 05:58N 43°06' E 005°54'0 0.0
2017-Jun-14 05:28N 43°06' E 005°54'  

Dump ship's entire track history